Time;durP1;ratioP1;P1;durP2;ratioP2;P2;SDS_P1;SDS_P2;PMS_P1;PMS_P2;Temp;Humidity;BMP_temperature;BMP_pressure;BME280_temperature;BME280_humidity;BME280_pressure;Samples;Min_cycle;Max_cycle;Signal;HPM_P1;HPM_P2
2022/04/16 00:01:44;;;;;;;0.40;0.40;;;5.40;99.90;;;;;;4993587;28;20267;-84
2022/04/16 00:04:10;;;;;;;0.37;0.37;;;5.30;99.90;;;;;;4991389;28;20448;-84
2022/04/16 00:06:37;;;;;;;0.30;0.30;;;5.20;99.90;;;;;;4973579;28;20252;-84
2022/04/16 00:09:03;;;;;;;0.40;0.40;;;5.30;99.90;;;;;;5005669;28;20180;-84
2022/04/16 00:11:29;;;;;;;0.40;0.40;;;5.20;99.90;;;;;;4976023;28;20479;-84
2022/04/16 00:13:54;;;;;;;0.40;0.40;;;5.20;99.90;;;;;;4989827;28;20436;-84
2022/04/16 00:16:20;;;;;;;0.40;0.40;;;5.10;99.90;;;;;;4998069;28;20181;-84
2022/04/16 00:18:46;;;;;;;0.33;0.33;;;5.00;99.90;;;;;;4980750;28;20189;-84
2022/04/16 00:21:12;;;;;;;0.40;0.40;;;5.00;99.90;;;;;;4987648;28;20190;-84
2022/04/16 00:23:41;;;;;;;0.30;0.30;;;5.00;99.90;;;;;;4992076;28;20547;-84
2022/04/16 00:26:07;;;;;;;0.40;0.40;;;5.00;99.90;;;;;;4964284;28;20228;-84
2022/04/16 00:28:35;;;;;;;0.40;0.40;;;5.00;99.90;;;;;;4987150;28;20454;-84
2022/04/16 00:31:00;;;;;;;0.40;0.40;;;4.90;99.90;;;;;;4991194;28;20239;-84
2022/04/16 00:33:26;;;;;;;0.40;0.40;;;4.90;99.90;;;;;;4988707;28;20862;-84
2022/04/16 00:35:52;;;;;;;0.30;0.30;;;4.80;99.90;;;;;;4987684;28;20192;-84
2022/04/16 00:38:18;;;;;;;0.40;0.40;;;4.70;99.90;;;;;;5001567;28;20211;-84
2022/04/16 00:40:44;;;;;;;0.40;0.40;;;4.60;99.90;;;;;;4989609;28;21229;-84
2022/04/16 00:43:29;;;;;;;0.40;0.40;;;4.50;99.90;;;;;;4999572;28;20188;-85
2022/04/16 00:45:56;;;;;;;0.40;0.40;;;4.60;99.90;;;;;;4992608;28;20679;-84
2022/04/16 00:48:22;;;;;;;0.40;0.40;;;4.50;99.90;;;;;;4988473;28;20781;-84
2022/04/16 00:50:53;;;;;;;0.40;0.40;;;4.60;99.90;;;;;;5005039;28;20444;-84
2022/04/16 00:53:19;;;;;;;0.40;0.40;;;4.60;99.90;;;;;;4983932;28;20469;-84
2022/04/16 00:55:44;;;;;;;0.40;0.40;;;4.70;99.90;;;;;;4993030;28;20440;-85
2022/04/16 00:58:10;;;;;;;0.30;0.30;;;4.70;99.90;;;;;;4970953;28;20839;-85
2022/04/16 01:00:36;;;;;;;0.40;0.40;;;4.60;99.90;;;;;;4987660;28;20281;-84
2022/04/16 01:03:02;;;;;;;0.40;0.40;;;4.50;99.90;;;;;;4987209;28;20207;-84
2022/04/16 01:05:28;;;;;;;0.40;0.40;;;4.40;99.90;;;;;;4987243;28;20498;-84
2022/04/16 01:07:59;;;;;;;0.40;0.40;;;4.30;99.90;;;;;;4987378;28;20495;-84
2022/04/16 01:10:27;;;;;;;0.40;0.40;;;4.30;99.90;;;;;;4973157;28;20204;-84
2022/04/16 01:12:58;;;;;;;0.40;0.40;;;4.30;99.90;;;;;;4990996;28;20430;-84
2022/04/16 01:15:25;;;;;;;0.50;0.50;;;4.30;99.90;;;;;;4999845;28;20452;-84
2022/04/16 01:17:51;;;;;;;0.40;0.40;;;4.30;99.90;;;;;;4987179;28;20519;-84
2022/04/16 01:20:18;;;;;;;0.40;0.40;;;4.30;99.90;;;;;;4987204;28;20470;-85
2022/04/16 01:22:45;;;;;;;0.50;0.50;;;4.30;99.90;;;;;;4988182;28;21077;-84
2022/04/16 01:25:11;;;;;;;0.40;0.40;;;4.20;99.90;;;;;;4997281;28;20492;-84
2022/04/16 01:27:43;;;;;;;0.50;0.50;;;4.30;99.90;;;;;;4987425;28;20502;-84
2022/04/16 01:30:22;;;;;;;0.40;0.40;;;4.20;99.90;;;;;;4986458;28;20448;-84
2022/04/16 01:32:50;;;;;;;0.40;0.40;;;4.20;99.90;;;;;;4975214;28;20448;-84
2022/04/16 01:35:17;;;;;;;0.50;0.50;;;4.10;99.90;;;;;;4985610;28;20487;-84
2022/04/16 01:37:43;;;;;;;0.40;0.40;;;4.10;99.90;;;;;;4987831;28;20494;-84
2022/04/16 01:40:11;;;;;;;0.40;0.40;;;4.00;99.90;;;;;;4974068;28;20955;-84
2022/04/16 01:42:37;;;;;;;0.43;0.43;;;3.80;99.90;;;;;;4988349;28;20483;-84
2022/04/16 01:45:05;;;;;;;0.40;0.40;;;3.90;99.90;;;;;;4990145;28;20461;-84
2022/04/16 01:47:31;;;;;;;0.50;0.50;;;3.90;99.90;;;;;;4999409;28;20622;-84
2022/04/16 01:49:56;;;;;;;0.40;0.40;;;3.90;99.90;;;;;;4984101;28;20459;-84
2022/04/16 01:52:23;;;;;;;0.40;0.40;;;3.90;99.90;;;;;;4988924;28;20459;-85
2022/04/16 01:54:51;;;;;;;0.40;0.40;;;3.80;99.90;;;;;;4989685;28;20203;-84
2022/04/16 01:57:18;;;;;;;0.50;0.50;;;3.70;99.90;;;;;;4984973;28;20528;-84
2022/04/16 01:59:48;;;;;;;0.50;0.50;;;3.60;99.90;;;;;;4990192;28;21067;-84
2022/04/16 02:02:17;;;;;;;0.50;0.50;;;3.60;99.90;;;;;;4986942;28;20490;-85
2022/04/16 02:04:43;;;;;;;0.40;0.40;;;3.50;99.90;;;;;;4973768;28;20436;-84
2022/04/16 02:07:09;;;;;;;0.50;0.50;;;3.50;99.90;;;;;;4987190;28;20503;-84
2022/04/16 02:09:35;;;;;;;0.50;0.50;;;3.40;99.90;;;;;;4987148;28;20455;-84
2022/04/16 02:12:01;;;;;;;0.40;0.40;;;3.30;99.90;;;;;;4986409;28;21082;-83
2022/04/16 02:14:26;;;;;;;0.40;0.40;;;3.40;99.90;;;;;;4989388;28;20196;-84
2022/04/16 02:16:51;;;;;;;0.40;0.40;;;3.20;99.90;;;;;;4979765;28;20657;-84
2022/04/16 02:19:17;;;;;;;0.40;0.40;;;3.20;99.90;;;;;;4971702;28;20189;-84
2022/04/16 02:21:47;;;;;;;0.40;0.40;;;3.10;99.90;;;;;;4985046;28;20565;-84
2022/04/16 02:24:13;;;;;;;0.40;0.40;;;3.30;99.90;;;;;;4987962;28;20275;-85
2022/04/16 02:26:40;;;;;;;0.43;0.43;;;3.20;99.90;;;;;;4985402;28;20495;-85
2022/04/16 02:29:08;;;;;;;0.40;0.40;;;3.20;99.90;;;;;;4972748;28;20966;-84
2022/04/16 02:31:33;;;;;;;0.40;0.40;;;3.30;99.90;;;;;;4984229;28;20566;-84
2022/04/16 02:33:59;;;;;;;0.50;0.50;;;3.00;99.90;;;;;;4974273;28;21114;-84
2022/04/16 02:36:25;;;;;;;0.50;0.50;;;3.10;99.90;;;;;;4987873;28;20539;-84
2022/04/16 02:38:54;;;;;;;0.40;0.40;;;3.20;99.90;;;;;;4971247;28;20531;-85
2022/04/16 02:41:26;;;;;;;0.40;0.40;;;3.20;99.90;;;;;;4995714;28;20474;-84
2022/04/16 02:43:54;;;;;;;0.40;0.40;;;3.20;99.90;;;;;;4985403;28;20446;-84
2022/04/16 02:49:06;;;;;;;0.50;0.50;;;3.00;99.90;;;;;;4992111;28;20451;-84
2022/04/16 02:51:32;;;;;;;0.50;0.50;;;3.00;99.90;;;;;;4983357;28;20485;-84
2022/04/16 02:53:57;;;;;;;0.40;0.40;;;3.10;99.90;;;;;;4968699;28;20444;-84
2022/04/16 02:56:23;;;;;;;0.40;0.40;;;3.00;99.90;;;;;;4988722;28;20185;-84
2022/04/16 02:58:48;;;;;;;0.50;0.50;;;3.00;99.90;;;;;;4992335;28;20203;-84
2022/04/16 03:01:15;;;;;;;0.50;0.50;;;2.80;99.90;;;;;;4981676;28;20201;-83
2022/04/16 03:03:41;;;;;;;0.40;0.40;;;2.80;99.90;;;;;;4987680;28;20192;-84
2022/04/16 03:06:06;;;;;;;0.40;0.40;;;2.70;99.90;;;;;;4988148;28;20931;-84
2022/04/16 03:08:32;;;;;;;0.50;0.50;;;2.60;99.90;;;;;;4985361;28;20452;-84
2022/04/16 03:10:58;;;;;;;0.40;0.40;;;2.60;99.90;;;;;;4987995;28;20684;-84
2022/04/16 03:13:23;;;;;;;0.40;0.40;;;2.60;99.90;;;;;;5001973;28;20200;-84
2022/04/16 03:18:33;;;;;;;0.50;0.50;;;2.50;99.90;;;;;;4988314;28;20310;-84
2022/04/16 03:20:59;;;;;;;0.50;0.50;;;2.60;99.90;;;;;;4972926;28;21123;-84
2022/04/16 03:23:25;;;;;;;0.50;0.50;;;2.50;99.90;;;;;;4974919;28;21104;-84
2022/04/16 03:25:53;;;;;;;0.40;0.40;;;2.50;99.90;;;;;;4994667;28;20451;-84
2022/04/16 03:28:19;;;;;;;0.50;0.50;;;2.40;99.90;;;;;;4976088;28;20874;-84
2022/04/16 03:30:45;;;;;;;0.50;0.50;;;2.40;99.90;;;;;;4989680;28;20447;-84
2022/04/16 03:33:11;;;;;;;0.40;0.40;;;2.20;99.90;;;;;;4995284;28;20452;-85
2022/04/16 03:35:36;;;;;;;0.40;0.40;;;2.20;99.90;;;;;;4971379;28;20883;-84
2022/04/16 03:38:03;;;;;;;0.50;0.50;;;2.40;99.90;;;;;;4993606;28;20192;-84
2022/04/16 03:40:28;;;;;;;0.50;0.50;;;2.40;99.90;;;;;;4989572;28;20236;-84
2022/04/16 03:42:59;;;;;;;0.50;0.50;;;2.30;99.90;;;;;;4989612;28;20495;-83
2022/04/16 03:45:34;;;;;;;0.50;0.50;;;2.30;99.90;;;;;;4974340;28;20247;-84
2022/04/16 03:48:02;;;;;;;0.50;0.50;;;2.40;99.90;;;;;;4990851;28;21072;-85
2022/04/16 03:50:29;;;;;;;0.40;0.40;;;2.40;99.90;;;;;;4988577;28;20823;-84
2022/04/16 03:52:56;;;;;;;0.50;0.50;;;2.40;99.90;;;;;;4986703;28;20491;-83
2022/04/16 04:00:58;;;;;;;0.50;0.50;;;2.30;99.90;;;;;;5001690;28;20475;-84
2022/04/16 04:03:24;;;;;;;0.50;0.50;;;2.30;99.90;;;;;;4985906;28;20884;-84
2022/04/16 04:05:53;;;;;;;0.50;0.50;;;2.20;99.90;;;;;;4970178;28;20193;-84
2022/04/16 04:08:19;;;;;;;0.50;0.50;;;2.20;99.90;;;;;;4965486;28;20864;-84
2022/04/16 04:10:46;;;;;;;0.40;0.40;;;2.10;99.90;;;;;;4974787;28;20935;-83
2022/04/16 04:13:13;;;;;;;0.50;0.50;;;1.90;99.90;;;;;;4993752;28;20539;-84
2022/04/16 04:15:39;;;;;;;0.50;0.50;;;2.00;99.90;;;;;;4988300;28;20535;-85
2022/04/16 04:18:05;;;;;;;0.50;0.50;;;2.00;99.90;;;;;;4969437;28;20538;-84
2022/04/16 04:20:31;;;;;;;0.47;0.47;;;1.90;99.90;;;;;;4986877;28;20550;-84
2022/04/16 04:22:56;;;;;;;0.50;0.50;;;1.80;99.90;;;;;;4971148;28;20609;-84
2022/04/16 04:25:22;;;;;;;0.50;0.50;;;1.90;99.90;;;;;;4983966;28;20444;-84
2022/04/16 04:27:48;;;;;;;0.50;0.50;;;1.90;99.90;;;;;;4982489;28;20221;-84
2022/04/16 04:30:13;;;;;;;0.50;0.50;;;2.00;99.90;;;;;;4978346;28;20820;-84
2022/04/16 04:32:39;;;;;;;0.50;0.50;;;2.00;99.90;;;;;;4990137;28;20192;-84
2022/04/16 04:35:06;;;;;;;0.40;0.40;;;1.90;99.90;;;;;;4969056;28;20189;-84
2022/04/16 04:37:32;;;;;;;0.50;0.50;;;1.80;99.90;;;;;;4965621;28;20234;-83
2022/04/16 04:39:58;;;;;;;0.50;0.50;;;1.80;99.90;;;;;;4988704;28;20468;-84
2022/04/16 04:42:30;;;;;;;0.50;0.50;;;1.80;99.90;;;;;;4970934;28;20732;-84
2022/04/16 04:45:00;;;;;;;0.50;0.50;;;1.60;99.90;;;;;;4965861;28;20448;-83
2022/04/16 04:47:25;;;;;;;0.60;0.60;;;1.60;99.90;;;;;;4988705;28;20486;-84
2022/04/16 04:49:51;;;;;;;0.50;0.50;;;1.80;99.90;;;;;;4987161;28;20803;-84
2022/04/16 04:52:26;;;;;;;0.40;0.40;;;1.90;99.90;;;;;;4987670;28;20224;-84
2022/04/16 04:54:55;;;;;;;0.50;0.50;;;1.90;99.90;;;;;;4989731;28;20188;-85
2022/04/16 04:57:20;;;;;;;0.50;0.50;;;1.90;99.90;;;;;;4990551;28;20947;-84
2022/04/16 04:59:47;;;;;;;0.50;0.50;;;2.00;99.90;;;;;;4984391;28;20531;-84
2022/04/16 05:02:12;;;;;;;0.47;0.47;;;2.00;99.90;;;;;;4983802;28;20193;-84
2022/04/16 05:04:38;;;;;;;0.50;0.50;;;2.00;99.90;;;;;;4968746;28;20514;-84
2022/04/16 05:07:07;;;;;;;0.50;0.50;;;2.00;99.90;;;;;;4985360;28;20274;-83
2022/04/16 05:09:33;;;;;;;0.50;0.50;;;1.90;99.90;;;;;;4989477;28;20661;-84
2022/04/16 05:11:59;;;;;;;0.50;0.50;;;2.00;99.90;;;;;;4991403;28;20459;-84
2022/04/16 05:14:24;;;;;;;0.50;0.50;;;2.00;99.90;;;;;;4982598;28;20923;-83
2022/04/16 05:16:50;;;;;;;0.40;0.40;;;2.10;99.90;;;;;;4963968;28;20621;-84
2022/04/16 05:19:16;;;;;;;0.40;0.40;;;2.20;99.90;;;;;;4984469;28;20236;-84
2022/04/16 05:21:42;;;;;;;0.50;0.50;;;2.30;99.90;;;;;;4988006;28;20828;-84
2022/04/16 05:24:08;;;;;;;0.60;0.60;;;2.40;99.90;;;;;;4989534;28;20235;-84
2022/04/16 05:26:34;;;;;;;0.50;0.50;;;2.50;99.90;;;;;;4986974;28;20484;-85
2022/04/16 05:29:00;;;;;;;0.43;0.43;;;2.60;99.90;;;;;;4987660;28;20188;-84
2022/04/16 05:31:30;;;;;;;0.50;0.50;;;2.70;99.90;;;;;;4986065;28;20453;-86
2022/04/16 05:36:40;;;;;;;0.40;0.40;;;3.00;99.90;;;;;;4994916;28;20470;-84
2022/04/16 05:39:06;;;;;;;0.40;0.40;;;3.10;99.90;;;;;;4995202;28;20971;-85
2022/04/16 05:41:35;;;;;;;0.50;0.50;;;3.20;99.90;;;;;;4987644;28;20188;-85
2022/04/16 05:44:02;;;;;;;0.40;0.40;;;3.40;99.90;;;;;;4987717;28;20969;-84
2022/04/16 05:46:31;;;;;;;0.40;0.40;;;3.50;99.90;;;;;;4987526;28;20573;-84
2022/04/16 05:48:57;;;;;;;0.40;0.40;;;3.50;99.90;;;;;;4973450;28;20795;-85
2022/04/16 05:51:24;;;;;;;0.40;0.40;;;3.60;99.90;;;;;;4988009;28;20448;-84
2022/04/16 05:53:50;;;;;;;0.30;0.30;;;3.70;99.90;;;;;;4989516;28;20189;-83
2022/04/16 05:56:16;;;;;;;0.40;0.40;;;3.80;99.90;;;;;;4987103;28;20811;-84
2022/04/16 05:58:42;;;;;;;0.50;0.50;;;3.90;99.90;;;;;;4988517;28;20185;-83
2022/04/16 06:01:09;;;;;;;0.30;0.30;;;4.10;99.90;;;;;;4988967;28;20449;-84
2022/04/16 06:03:42;;;;;;;0.40;0.40;;;4.20;99.90;;;;;;4990973;28;20444;-84
2022/04/16 06:06:08;;;;;;;0.30;0.30;;;4.30;99.90;;;;;;4988588;28;20476;-84
2022/04/16 06:08:35;;;;;;;0.40;0.40;;;4.40;99.90;;;;;;4991604;28;20448;-83
2022/04/16 06:11:01;;;;;;;0.40;0.40;;;4.40;99.90;;;;;;4984480;28;20797;-82
2022/04/16 06:13:26;;;;;;;0.30;0.30;;;4.60;99.90;;;;;;4988832;28;20507;-84
2022/04/16 06:15:52;;;;;;;0.37;0.37;;;4.80;99.90;;;;;;4982824;28;20675;-83
2022/04/16 06:18:17;;;;;;;0.40;0.40;;;5.00;99.90;;;;;;4989537;28;20272;-83
2022/04/16 06:20:43;;;;;;;0.40;0.40;;;5.20;99.90;;;;;;4986525;28;20181;-83
2022/04/16 06:23:09;;;;;;;0.40;0.40;;;5.40;99.90;;;;;;4989395;28;20239;-83
2022/04/16 06:25:34;;;;;;;0.37;0.37;;;5.50;99.90;;;;;;4982089;28;20208;-83
2022/04/16 06:28:00;;;;;;;0.40;0.40;;;5.60;99.90;;;;;;4984168;28;20213;-84
2022/04/16 06:30:26;;;;;;;0.40;0.40;;;5.70;99.90;;;;;;4967257;28;20186;-83
2022/04/16 06:32:51;;;;;;;0.40;0.40;;;5.80;99.90;;;;;;4984269;28;20238;-84
2022/04/16 06:35:17;;;;;;;0.40;0.40;;;5.90;99.90;;;;;;4983483;28;20205;-85
2022/04/16 06:37:42;;;;;;;0.40;0.40;;;6.00;99.90;;;;;;4995322;28;20225;-84
2022/04/16 06:40:09;;;;;;;0.40;0.40;;;6.20;99.90;;;;;;5004007;28;20249;-84
2022/04/16 06:42:35;;;;;;;0.30;0.30;;;6.40;99.90;;;;;;4965232;28;20204;-85
2022/04/16 06:45:01;;;;;;;0.40;0.40;;;6.60;99.90;;;;;;4988749;28;21006;-84
2022/04/16 06:47:29;;;;;;;0.30;0.30;;;6.80;99.90;;;;;;4993380;28;20502;-87
2022/04/16 06:49:55;;;;;;;0.30;0.30;;;6.90;99.90;;;;;;4969797;28;20489;-85
2022/04/16 06:52:20;;;;;;;0.30;0.30;;;7.00;99.90;;;;;;4988455;28;20444;-83
2022/04/16 06:54:47;;;;;;;0.30;0.30;;;7.20;99.90;;;;;;4997410;28;20640;-84
2022/04/16 06:57:13;;;;;;;0.40;0.40;;;7.20;99.90;;;;;;4992966;28;20565;-84
2022/04/16 06:59:38;;;;;;;0.30;0.30;;;7.40;99.90;;;;;;4983304;28;20448;-85
2022/04/16 07:02:09;;;;;;;0.30;0.30;;;7.60;99.90;;;;;;4962535;28;20449;-83
2022/04/16 07:04:36;;;;;;;0.30;0.30;;;7.70;99.90;;;;;;4993924;28;20188;-85
2022/04/16 07:07:01;;;;;;;0.30;0.30;;;7.90;99.90;;;;;;4994377;28;20986;-84
2022/04/16 07:09:27;;;;;;;0.30;0.30;;;8.10;99.90;;;;;;4990529;28;20447;-84
2022/04/16 07:11:53;;;;;;;0.30;0.30;;;8.10;99.90;;;;;;4974426;28;20994;-83
2022/04/16 07:14:19;;;;;;;0.30;0.30;;;8.10;99.90;;;;;;4984612;28;20186;-83
2022/04/16 07:16:45;;;;;;;0.20;0.20;;;8.10;99.90;;;;;;4976496;28;20271;-83
2022/04/16 07:19:10;;;;;;;0.30;0.30;;;8.20;99.90;;;;;;4992038;28;20468;-84
2022/04/16 07:21:36;;;;;;;0.30;0.30;;;8.20;99.90;;;;;;4990063;28;20203;-83
2022/04/16 07:24:01;;;;;;;0.30;0.30;;;8.40;99.90;;;;;;4987000;28;20311;-83
2022/04/16 07:26:27;;;;;;;0.30;0.30;;;8.50;99.90;;;;;;5000259;28;20216;-82
2022/04/16 07:28:53;;;;;;;0.30;0.30;;;8.60;99.90;;;;;;4988940;28;20193;-82
2022/04/16 07:31:18;;;;;;;0.30;0.30;;;8.60;99.90;;;;;;4988703;28;20681;-81
2022/04/16 07:33:44;;;;;;;0.27;0.27;;;8.70;99.90;;;;;;4988271;28;20451;-83
2022/04/16 07:36:10;;;;;;;0.20;0.20;;;8.70;99.90;;;;;;4980286;28;20665;-84
2022/04/16 07:38:35;;;;;;;0.20;0.20;;;8.80;99.90;;;;;;4993385;28;20188;-82
2022/04/16 07:41:02;;;;;;;0.30;0.30;;;8.80;99.90;;;;;;4989180;28;20280;-82
2022/04/16 07:43:28;;;;;;;0.30;0.30;;;8.90;99.90;;;;;;4967728;28;20189;-80
2022/04/16 07:45:54;;;;;;;0.23;0.23;;;9.00;99.90;;;;;;5007645;28;20959;-81
2022/04/16 07:48:19;;;;;;;0.30;0.30;;;9.10;99.90;;;;;;4989490;28;20467;-81
2022/04/16 07:50:45;;;;;;;0.20;0.20;;;9.30;99.90;;;;;;4989288;28;20185;-81
2022/04/16 07:53:11;;;;;;;0.23;0.23;;;9.40;99.90;;;;;;4979268;28;20220;-81
2022/04/16 07:55:37;;;;;;;0.20;0.20;;;9.40;99.90;;;;;;4987372;28;20268;-77
2022/04/16 07:58:03;;;;;;;0.20;0.20;;;9.40;99.90;;;;;;4988703;28;20552;-83
2022/04/16 08:00:28;;;;;;;0.20;0.20;;;9.50;99.90;;;;;;4983517;28;20181;-80
2022/04/16 08:02:54;;;;;;;0.20;0.20;;;9.70;99.90;;;;;;4987531;28;20193;-80
2022/04/16 08:05:19;;;;;;;0.20;0.20;;;9.70;99.90;;;;;;4986927;28;20205;-82
2022/04/16 08:07:46;;;;;;;0.30;0.30;;;9.70;99.90;;;;;;4991861;28;20717;-81
2022/04/16 08:10:12;;;;;;;0.20;0.20;;;9.80;99.90;;;;;;5002767;28;20177;-78
2022/04/16 08:12:37;;;;;;;0.20;0.20;;;9.80;99.90;;;;;;5003695;28;20452;-81
2022/04/16 08:15:04;;;;;;;0.20;0.20;;;9.90;99.90;;;;;;4978080;28;20315;-81
2022/04/16 08:17:30;;;;;;;0.20;0.20;;;10.20;99.90;;;;;;5002937;28;20288;-82
2022/04/16 08:19:56;;;;;;;0.23;0.23;;;9.80;99.90;;;;;;4976476;28;21007;-81
2022/04/16 08:22:22;;;;;;;0.30;0.30;;;10.10;99.90;;;;;;4981251;28;20204;-82
2022/04/16 08:25:43;;;;;;;0.30;0.30;;;10.20;99.90;;;;;;4971223;28;20447;-83
2022/04/16 08:27:40;;;;;;;0.20;0.20;;;10.40;99.90;;;;;;4988987;28;20611;-81
2022/04/16 08:30:07;;;;;;;0.20;0.20;;;10.20;99.90;;;;;;4987406;28;20527;-81
2022/04/16 08:32:37;;;;;;;0.20;0.20;;;9.90;99.90;;;;;;4982528;28;20197;-81
2022/04/16 08:35:04;;;;;;;0.20;0.20;;;10.30;99.90;;;;;;4970863;28;20449;-82
2022/04/16 08:37:29;;;;;;;0.20;0.20;;;10.50;99.90;;;;;;4972291;28;20441;-81
2022/04/16 08:39:55;;;;;;;0.20;0.20;;;10.80;99.90;;;;;;4990928;28;20451;-84
2022/04/16 08:42:21;;;;;;;0.20;0.20;;;11.10;99.90;;;;;;4990700;28;20570;-82
2022/04/16 08:44:47;;;;;;;0.20;0.20;;;11.20;99.90;;;;;;4989752;28;20268;-82
2022/04/16 08:47:14;;;;;;;0.20;0.20;;;10.50;99.90;;;;;;4989862;28;20487;-80
2022/04/16 08:49:41;;;;;;;0.20;0.20;;;10.70;99.90;;;;;;4988386;28;20539;-81
2022/04/16 08:52:08;;;;;;;0.20;0.20;;;10.80;99.90;;;;;;4968193;28;20531;-81
2022/04/16 08:54:36;;;;;;;0.20;0.20;;;10.40;99.90;;;;;;4984017;28;20959;-80
2022/04/16 08:57:02;;;;;;;0.20;0.20;;;10.40;99.90;;;;;;4983244;28;20838;-84
2022/04/16 08:59:27;;;;;;;0.20;0.20;;;10.80;99.90;;;;;;4955654;28;20452;-83
2022/04/16 09:01:53;;;;;;;0.20;0.20;;;11.30;99.90;;;;;;4985052;28;20203;-84
2022/04/16 09:04:20;;;;;;;0.13;0.13;;;11.90;99.90;;;;;;4973230;28;20192;-84
2022/04/16 09:06:56;;;;;;;0.17;0.17;;;11.80;99.90;;;;;;4981186;28;20217;-86
2022/04/16 09:09:22;;;;;;;0.20;0.20;;;11.80;99.90;;;;;;4998839;28;20433;-86
2022/04/16 09:11:50;;;;;;;0.20;0.20;;;12.20;99.90;;;;;;4991417;28;20428;-86
2022/04/16 09:14:15;;;;;;;0.10;0.10;;;12.20;99.90;;;;;;4985684;28;20593;-84
2022/04/16 09:16:42;;;;;;;0.20;0.20;;;12.50;99.90;;;;;;4990152;28;20468;-85
2022/04/16 09:19:12;;;;;;;0.13;0.13;;;12.80;99.90;;;;;;4990480;28;20193;-85
2022/04/16 09:21:38;;;;;;;0.10;0.10;;;12.80;99.90;;;;;;4971801;28;20456;-83
2022/04/16 09:24:04;;;;;;;0.20;0.20;;;13.20;99.90;;;;;;4970935;28;20478;-86
2022/04/16 09:26:38;;;;;;;0.10;0.10;;;12.90;99.90;;;;;;4991588;28;20827;-86
2022/04/16 09:29:10;;;;;;;0.10;0.10;;;12.80;99.90;;;;;;4973344;28;20203;-86
2022/04/16 09:31:38;;;;;;;0.20;0.20;;;13.30;99.90;;;;;;4990708;28;20498;-86
2022/04/16 09:34:05;;;;;;;0.10;0.10;;;13.00;99.90;;;;;;4973098;28;20518;-84
2022/04/16 09:36:36;;;;;;;0.10;0.10;;;13.00;99.90;;;;;;4987351;28;20451;-85
2022/04/16 09:39:06;;;;;;;0.10;0.10;;;13.20;99.90;;;;;;4971553;28;20499;-82
2022/04/16 09:41:34;;;;;;;0.10;0.10;;;13.20;99.90;;;;;;4987232;28;20956;-86
2022/04/16 09:44:01;;;;;;;0.10;0.10;;;13.10;99.90;;;;;;4986728;28;21013;-86
2022/04/16 09:46:28;;;;;;;0.10;0.10;;;13.60;99.90;;;;;;4957639;28;20473;-86
2022/04/16 09:49:03;;;;;;;0.10;0.10;;;13.70;99.90;;;;;;4972933;28;20495;-86
2022/04/16 09:51:34;;;;;;;0.10;0.10;;;13.90;99.90;;;;;;4962085;28;20460;-86
2022/04/16 09:54:03;;;;;;;0.10;0.10;;;14.00;99.90;;;;;;4988431;28;20527;-86
2022/04/16 09:56:32;;;;;;;0.10;0.10;;;14.20;99.90;;;;;;4989577;28;20440;-87
2022/04/16 09:59:00;;;;;;;0.10;0.10;;;14.10;99.90;;;;;;4988423;28;21216;-86
2022/04/16 10:01:26;;;;;;;0.10;0.10;;;13.90;99.90;;;;;;4987360;28;20444;-84
2022/04/16 10:03:52;;;;;;;0.10;0.10;;;13.70;99.90;;;;;;4976336;28;20445;-86
2022/04/16 10:06:20;;;;;;;0.10;0.10;;;13.00;99.90;;;;;;4986052;28;21062;-86
2022/04/16 10:08:46;;;;;;;0.10;0.10;;;13.70;99.90;;;;;;4970949;28;20459;-86
2022/04/16 10:11:19;;;;;;;0.10;0.10;;;14.30;99.90;;;;;;5000354;28;20466;-87
2022/04/16 10:13:58;;;;;;;0.10;0.10;;;14.60;99.90;;;;;;4986630;28;20464;-88
2022/04/16 10:16:50;;;;;;;0.10;0.10;;;15.10;99.90;;;;;;4972805;28;20967;-87
2022/04/16 10:19:16;;;;;;;0.10;0.10;;;15.20;99.90;;;;;;4991401;28;20779;-87
2022/04/16 10:21:42;;;;;;;0.10;0.10;;;15.00;99.90;;;;;;4970623;28;20460;-87
2022/04/16 10:24:08;;;;;;;0.10;0.10;;;15.20;99.90;;;;;;4986736;28;20534;-95
2022/04/16 10:29:19;;;;;;;0.10;0.10;;;15.70;99.90;;;;;;5145893;23;20283;-96
2022/04/16 10:31:49;;;;;;;0.00;0.00;;;15.90;99.90;;;;;;4996907;28;20452;-96
2022/04/16 10:34:18;;;;;;;0.00;0.00;;;15.00;99.90;;;;;;4977978;28;20432;-95
2022/04/16 10:36:52;;;;;;;0.10;0.10;;;15.30;99.90;;;;;;4992432;28;20424;-96
2022/04/16 10:39:27;;;;;;;0.10;0.10;;;15.90;99.90;;;;;;5020629;28;20420;-90
2022/04/16 10:47:38;;;;;;;0.10;0.10;;;16.30;99.90;;;;;;5445018;23;20489;-93
2022/04/16 10:52:39;;;;;;;0.10;0.10;;;16.00;99.90;;;;;;5012210;23;20511;-94
2022/04/16 10:55:05;;;;;;;0.10;0.00;;;16.40;99.90;;;;;;4959627;28;20446;-96
2022/04/16 10:57:30;;;;;;;0.10;0.00;;;17.00;99.90;;;;;;4981180;28;20600;-96
2022/04/16 10:59:57;;;;;;;0.10;0.00;;;17.30;99.90;;;;;;4970466;28;20461;-96
2022/04/16 11:02:27;;;;;;;0.00;0.00;;;17.20;99.90;;;;;;4980536;28;20240;-96
2022/04/16 11:05:08;;;;;;;0.00;0.00;;;17.10;99.90;;;;;;4971334;28;20544;-96
2022/04/16 11:07:38;;;;;;;0.10;0.00;;;17.10;99.90;;;;;;4977478;28;21027;-94
2022/04/16 11:10:09;;;;;;;0.10;0.00;;;16.50;99.90;;;;;;4958084;28;20452;-93
2022/04/16 11:12:37;;;;;;;0.10;0.00;;;17.10;99.90;;;;;;4972928;28;20545;-96
2022/04/16 11:15:08;;;;;;;0.10;0.00;;;17.30;99.90;;;;;;4975600;28;20540;-96
2022/04/16 11:17:34;;;;;;;0.10;0.00;;;18.10;99.90;;;;;;4976193;28;20444;-96
2022/04/16 11:20:01;;;;;;;0.10;0.00;;;17.80;99.90;;;;;;4958383;28;20566;-96
2022/04/16 11:22:29;;;;;;;0.10;0.00;;;17.80;99.90;;;;;;4970540;28;20183;-96
2022/04/16 11:24:55;;;;;;;0.10;0.00;;;17.50;99.90;;;;;;4962873;28;20929;-96
2022/04/16 11:36:07;;;;;;;0.10;0.00;;;17.40;99.90;;;;;;4967172;28;20509;-94
2022/04/16 11:38:35;;;;;;;0.00;0.00;;;18.30;99.90;;;;;;4969423;28;20449;-94
2022/04/16 11:41:04;;;;;;;0.00;0.00;;;18.30;99.90;;;;;;4956956;28;20493;-96
2022/04/16 11:48:33;;;;;;;0.00;0.00;;;18.10;99.90;;;;;;4979712;28;20523;-96
2022/04/16 11:50:59;;;;;;;0.00;0.00;;;18.90;99.90;;;;;;4966893;28;20484;-96
2022/04/16 11:53:25;;;;;;;0.00;0.00;;;18.80;99.60;;;;;;4976703;28;20453;-95
2022/04/16 11:55:56;;;;;;;0.00;0.00;;;19.20;99.10;;;;;;4978755;28;20198;-96
2022/04/16 11:58:29;;;;;;;0.00;0.00;;;19.00;99.10;;;;;;5032200;23;20247;-96
2022/04/16 12:00:57;;;;;;;0.00;0.00;;;18.70;98.50;;;;;;4917908;29;20446;-96
2022/04/16 12:03:34;;;;;;;0.00;0.00;;;19.00;98.20;;;;;;4911482;29;20943;-96
2022/04/16 12:06:00;;;;;;;0.00;0.00;;;18.50;97.80;;;;;;4933760;29;20447;-95
2022/04/16 12:08:27;;;;;;;0.00;0.00;;;17.80;96.00;;;;;;4926358;29;20491;-95
2022/04/16 12:10:53;;;;;;;0.00;0.00;;;18.30;96.10;;;;;;4916753;29;20632;-96
2022/04/16 12:13:19;;;;;;;0.00;0.00;;;18.50;94.80;;;;;;4916224;29;20456;-96
2022/04/16 12:15:54;;;;;;;0.00;0.00;;;18.40;96.70;;;;;;4916845;29;20486;-96
2022/04/16 12:18:19;;;;;;;0.00;0.00;;;18.60;96.50;;;;;;4910869;29;20456;-95
2022/04/16 12:20:47;;;;;;;0.00;0.00;;;19.30;96.30;;;;;;4915806;29;20448;-96
2022/04/16 12:23:22;;;;;;;0.00;0.00;;;19.40;94.50;;;;;;4913310;29;21640;-95
2022/04/16 12:26:02;;;;;;;0.00;0.00;;;18.70;93.90;;;;;;4931921;29;20615;-94
2022/04/16 12:28:31;;;;;;;0.00;0.00;;;18.80;94.90;;;;;;4922229;29;20464;-96
2022/04/16 12:30:56;;;;;;;0.00;0.00;;;18.90;96.10;;;;;;4918052;29;20487;-95
2022/04/16 12:33:26;;;;;;;0.00;0.00;;;19.30;96.40;;;;;;4933927;29;20457;-96
2022/04/16 12:35:57;;;;;;;0.00;0.00;;;18.60;93.90;;;;;;4916801;29;20192;-96
2022/04/16 12:38:26;;;;;;;0.00;0.00;;;19.10;92.70;;;;;;4935594;29;20430;-93
2022/04/16 12:41:04;;;;;;;0.00;0.00;;;19.10;95.00;;;;;;4935326;29;20536;-93
2022/04/16 12:43:30;;;;;;;0.00;0.00;;;19.00;93.20;;;;;;4929833;29;20447;-91
2022/04/16 12:45:56;;;;;;;0.00;0.00;;;18.90;93.40;;;;;;4912814;29;20467;-91
2022/04/16 12:48:21;;;;;;;0.00;0.00;;;18.60;92.90;;;;;;4918954;29;20494;-94
2022/04/16 12:50:47;;;;;;;0.00;0.00;;;18.80;94.70;;;;;;4915537;29;20660;-94
2022/04/16 12:53:13;;;;;;;0.00;0.00;;;19.00;92.70;;;;;;4915844;29;20545;-96
2022/04/16 12:55:38;;;;;;;0.00;0.00;;;18.40;92.10;;;;;;4918954;29;20224;-93
2022/04/16 12:58:05;;;;;;;0.00;0.00;;;18.90;92.80;;;;;;4939027;28;20251;-96
2022/04/16 13:00:31;;;;;;;0.00;0.00;;;19.30;93.30;;;;;;4921209;29;20196;-95
2022/04/16 13:02:59;;;;;;;0.00;0.00;;;19.30;90.50;;;;;;4918286;29;20444;-96
2022/04/16 13:05:26;;;;;;;0.00;0.00;;;19.20;90.10;;;;;;4951735;29;20466;-96
2022/04/16 13:07:52;;;;;;;0.00;0.00;;;19.00;91.00;;;;;;4917253;29;20494;-96
2022/04/16 13:10:20;;;;;;;0.00;0.00;;;19.00;90.50;;;;;;4915747;29;20499;-96
2022/04/16 13:15:26;;;;;;;0.00;0.00;;;18.60;86.10;;;;;;5173597;23;20487;-96
2022/04/16 13:17:52;;;;;;;0.00;0.00;;;17.90;90.90;;;;;;4981666;28;20455;-95
2022/04/16 13:20:17;;;;;;;0.00;0.00;;;18.20;90.80;;;;;;5010299;28;20455;-96
2022/04/16 13:22:43;;;;;;;0.00;0.00;;;18.00;90.10;;;;;;4981305;28;20197;-93
2022/04/16 13:25:09;;;;;;;0.00;0.00;;;17.80;92.40;;;;;;4973828;28;20633;-87
2022/04/16 13:27:35;;;;;;;0.00;0.00;;;17.80;90.10;;;;;;4989490;28;20231;-85
2022/04/16 13:30:01;;;;;;;0.00;0.00;;;19.00;90.80;;;;;;4989709;28;20460;-86
2022/04/16 13:32:26;;;;;;;0.00;0.00;;;19.50;90.20;;;;;;4972746;28;20529;-87
2022/04/16 13:34:52;;;;;;;0.00;0.00;;;20.10;89.40;;;;;;4986800;28;20452;-87